Goshen, Virginia
Current Conditions -  °F | °C
As of 6:35 PM on Friday 31 Oct 2014 (Local Time) from KHSP Reporting Station
Drizzle Drizzle  
Wind Chill: 37°   Ceiling: 400
Heat Index: 37°   Visibility: 4mi
Dew Point: 36°   Wind: 3mph
Humidity: 97%   Direction: 220°SW
Pressure: 29.78"   Gusts: NA
Location:  37.99°N, 79.5°W
Report Text: KHSP 312235Z AUTO 22003KT 4SM DZ BKN004 OVC008 03/02 A2978 RMK AO2 P0001 T00260022
Loading
Personal Weather Stations






























Interactive Weather Map
Tropical Storm Tracking
New forecast layout! Learn more

10-Day Weather Forecast

Advertisements
Track Severe Weather on mobile